sensor_id;sensor_type;location;lat;lon;timestamp;P1;durP1;ratioP1;P2;durP2;ratioP2
9524;SDS011;15940;48.734;9.112;2024-01-16T00:00:32;7.43;;;3.73;;
9524;SDS011;15940;48.734;9.112;2024-01-16T00:02:58;4.33;;;3.70;;
9524;SDS011;15940;48.734;9.112;2024-01-16T00:05:25;4.43;;;3.30;;
9524;SDS011;15940;48.734;9.112;2024-01-16T00:07:52;5.30;;;3.70;;
9524;SDS011;15940;48.734;9.112;2024-01-16T00:10:18;6.20;;;3.73;;
9524;SDS011;15940;48.734;9.112;2024-01-16T00:12:45;5.03;;;3.50;;
9524;SDS011;15940;48.734;9.112;2024-01-16T00:15:12;5.93;;;3.87;;
9524;SDS011;15940;48.734;9.112;2024-01-16T00:17:40;5.30;;;3.80;;
9524;SDS011;15940;48.734;9.112;2024-01-16T00:20:07;6.33;;;3.73;;
9524;SDS011;15940;48.734;9.112;2024-01-16T00:22:36;5.53;;;3.67;;
9524;SDS011;15940;48.734;9.112;2024-01-16T00:25:03;4.40;;;3.40;;
9524;SDS011;15940;48.734;9.112;2024-01-16T00:27:30;5.93;;;3.90;;
9524;SDS011;15940;48.734;9.112;2024-01-16T00:29:57;4.83;;;3.77;;
9524;SDS011;15940;48.734;9.112;2024-01-16T00:32:23;7.07;;;4.07;;
9524;SDS011;15940;48.734;9.112;2024-01-16T00:34:51;4.67;;;3.97;;
9524;SDS011;15940;48.734;9.112;2024-01-16T00:37:18;4.90;;;3.60;;
9524;SDS011;15940;48.734;9.112;2024-01-16T00:39:45;6.40;;;3.63;;
9524;SDS011;15940;48.734;9.112;2024-01-16T00:42:12;5.23;;;3.53;;
9524;SDS011;15940;48.734;9.112;2024-01-16T00:44:39;5.43;;;3.70;;
9524;SDS011;15940;48.734;9.112;2024-01-16T00:47:06;4.83;;;3.70;;
9524;SDS011;15940;48.734;9.112;2024-01-16T00:49:33;4.73;;;3.20;;
9524;SDS011;15940;48.734;9.112;2024-01-16T00:52:03;6.30;;;3.63;;
9524;SDS011;15940;48.734;9.112;2024-01-16T00:54:31;4.60;;;3.50;;
9524;SDS011;15940;48.734;9.112;2024-01-16T00:56:58;5.50;;;3.70;;
9524;SDS011;15940;48.734;9.112;2024-01-16T00:59:25;6.40;;;3.63;;
9524;SDS011;15940;48.734;9.112;2024-01-16T01:01:52;5.07;;;3.83;;
9524;SDS011;15940;48.734;9.112;2024-01-16T01:04:18;6.70;;;4.10;;
9524;SDS011;15940;48.734;9.112;2024-01-16T01:06:45;5.33;;;3.87;;
9524;SDS011;15940;48.734;9.112;2024-01-16T01:09:13;4.07;;;3.53;;
9524;SDS011;15940;48.734;9.112;2024-01-16T01:11:40;5.47;;;3.80;;
9524;SDS011;15940;48.734;9.112;2024-01-16T01:14:07;5.50;;;3.40;;
9524;SDS011;15940;48.734;9.112;2024-01-16T01:16:34;6.10;;;3.63;;
9524;SDS011;15940;48.734;9.112;2024-01-16T01:19:00;4.87;;;3.40;;
9524;SDS011;15940;48.734;9.112;2024-01-16T01:21:28;5.20;;;3.63;;
9524;SDS011;15940;48.734;9.112;2024-01-16T01:23:55;4.30;;;3.50;;
9524;SDS011;15940;48.734;9.112;2024-01-16T01:26:23;5.77;;;3.77;;
9524;SDS011;15940;48.734;9.112;2024-01-16T01:28:49;6.17;;;3.60;;
9524;SDS011;15940;48.734;9.112;2024-01-16T01:31:17;5.93;;;3.30;;
9524;SDS011;15940;48.734;9.112;2024-01-16T01:33:44;6.23;;;3.67;;
9524;SDS011;15940;48.734;9.112;2024-01-16T01:36:11;7.17;;;3.43;;
9524;SDS011;15940;48.734;9.112;2024-01-16T01:38:37;8.00;;;3.63;;
9524;SDS011;15940;48.734;9.112;2024-01-16T01:41:04;6.07;;;3.43;;
9524;SDS011;15940;48.734;9.112;2024-01-16T01:43:32;6.23;;;3.73;;
9524;SDS011;15940;48.734;9.112;2024-01-16T01:46:08;6.00;;;3.70;;
9524;SDS011;15940;48.734;9.112;2024-01-16T01:48:37;6.07;;;3.57;;
9524;SDS011;15940;48.734;9.112;2024-01-16T01:51:04;4.07;;;3.43;;
9524;SDS011;15940;48.734;9.112;2024-01-16T01:53:31;5.23;;;3.80;;
9524;SDS011;15940;48.734;9.112;2024-01-16T01:56:01;4.30;;;3.33;;
9524;SDS011;15940;48.734;9.112;2024-01-16T01:58:30;4.40;;;3.23;;
9524;SDS011;15940;48.734;9.112;2024-01-16T02:00:59;4.17;;;3.40;;
9524;SDS011;15940;48.734;9.112;2024-01-16T02:03:26;5.70;;;3.20;;
9524;SDS011;15940;48.734;9.112;2024-01-16T02:05:53;8.10;;;3.93;;
9524;SDS011;15940;48.734;9.112;2024-01-16T02:08:21;4.50;;;3.10;;
9524;SDS011;15940;48.734;9.112;2024-01-16T02:10:48;4.00;;;2.83;;
9524;SDS011;15940;48.734;9.112;2024-01-16T02:13:16;5.63;;;3.73;;
9524;SDS011;15940;48.734;9.112;2024-01-16T02:15:49;5.73;;;3.33;;
9524;SDS011;15940;48.734;9.112;2024-01-16T02:18:16;5.07;;;3.47;;
9524;SDS011;15940;48.734;9.112;2024-01-16T02:20:43;5.27;;;3.27;;
9524;SDS011;15940;48.734;9.112;2024-01-16T02:23:10;7.73;;;3.30;;
9524;SDS011;15940;48.734;9.112;2024-01-16T02:25:38;6.03;;;3.70;;
9524;SDS011;15940;48.734;9.112;2024-01-16T02:28:05;5.53;;;3.60;;
9524;SDS011;15940;48.734;9.112;2024-01-16T02:30:32;6.27;;;3.53;;
9524;SDS011;15940;48.734;9.112;2024-01-16T02:32:58;5.87;;;3.43;;
9524;SDS011;15940;48.734;9.112;2024-01-16T02:35:25;4.33;;;3.47;;
9524;SDS011;15940;48.734;9.112;2024-01-16T02:37:52;5.90;;;2.90;;
9524;SDS011;15940;48.734;9.112;2024-01-16T02:40:19;5.73;;;3.57;;
9524;SDS011;15940;48.734;9.112;2024-01-16T02:42:47;5.37;;;3.57;;
9524;SDS011;15940;48.734;9.112;2024-01-16T02:45:13;4.73;;;3.33;;
9524;SDS011;15940;48.734;9.112;2024-01-16T02:47:40;5.90;;;3.40;;
9524;SDS011;15940;48.734;9.112;2024-01-16T02:50:07;4.67;;;3.27;;
9524;SDS011;15940;48.734;9.112;2024-01-16T02:52:34;6.00;;;3.33;;
9524;SDS011;15940;48.734;9.112;2024-01-16T02:55:01;6.13;;;3.73;;
9524;SDS011;15940;48.734;9.112;2024-01-16T02:57:29;4.73;;;3.13;;
9524;SDS011;15940;48.734;9.112;2024-01-16T02:59:58;4.93;;;3.03;;
9524;SDS011;15940;48.734;9.112;2024-01-16T03:02:24;4.73;;;3.30;;
9524;SDS011;15940;48.734;9.112;2024-01-16T03:04:51;7.70;;;3.47;;
9524;SDS011;15940;48.734;9.112;2024-01-16T03:07:18;6.77;;;3.60;;
9524;SDS011;15940;48.734;9.112;2024-01-16T03:09:45;6.50;;;3.10;;
9524;SDS011;15940;48.734;9.112;2024-01-16T03:12:11;4.83;;;3.20;;
9524;SDS011;15940;48.734;9.112;2024-01-16T03:14:38;4.73;;;3.33;;
9524;SDS011;15940;48.734;9.112;2024-01-16T03:17:06;3.60;;;2.83;;
9524;SDS011;15940;48.734;9.112;2024-01-16T03:19:33;5.30;;;3.17;;
9524;SDS011;15940;48.734;9.112;2024-01-16T03:21:59;8.03;;;4.40;;
9524;SDS011;15940;48.734;9.112;2024-01-16T03:24:26;6.63;;;3.30;;
9524;SDS011;15940;48.734;9.112;2024-01-16T03:26:53;3.33;;;2.97;;
9524;SDS011;15940;48.734;9.112;2024-01-16T03:29:20;5.03;;;3.03;;
9524;SDS011;15940;48.734;9.112;2024-01-16T03:31:46;4.70;;;3.43;;
9524;SDS011;15940;48.734;9.112;2024-01-16T03:34:15;3.97;;;3.03;;
9524;SDS011;15940;48.734;9.112;2024-01-16T03:36:42;4.63;;;3.37;;
9524;SDS011;15940;48.734;9.112;2024-01-16T03:39:08;4.57;;;3.23;;
9524;SDS011;15940;48.734;9.112;2024-01-16T03:41:35;6.93;;;3.20;;
9524;SDS011;15940;48.734;9.112;2024-01-16T03:44:02;3.70;;;2.90;;
9524;SDS011;15940;48.734;9.112;2024-01-16T03:46:29;5.73;;;3.57;;
9524;SDS011;15940;48.734;9.112;2024-01-16T03:48:55;6.47;;;3.57;;
9524;SDS011;15940;48.734;9.112;2024-01-16T03:51:24;7.20;;;3.17;;
9524;SDS011;15940;48.734;9.112;2024-01-16T03:53:50;5.03;;;3.07;;
9524;SDS011;15940;48.734;9.112;2024-01-16T03:56:17;6.67;;;2.90;;
9524;SDS011;15940;48.734;9.112;2024-01-16T03:58:44;4.67;;;3.10;;
9524;SDS011;15940;48.734;9.112;2024-01-16T04:01:11;5.53;;;3.10;;
9524;SDS011;15940;48.734;9.112;2024-01-16T04:03:38;4.50;;;3.10;;
9524;SDS011;15940;48.734;9.112;2024-01-16T04:06:13;6.10;;;3.40;;
9524;SDS011;15940;48.734;9.112;2024-01-16T04:08:42;4.40;;;3.10;;
9524;SDS011;15940;48.734;9.112;2024-01-16T04:11:11;4.07;;;2.87;;
9524;SDS011;15940;48.734;9.112;2024-01-16T04:13:38;4.77;;;3.13;;
9524;SDS011;15940;48.734;9.112;2024-01-16T04:16:05;5.57;;;3.37;;
9524;SDS011;15940;48.734;9.112;2024-01-16T04:18:34;5.00;;;3.10;;
9524;SDS011;15940;48.734;9.112;2024-01-16T04:21:01;5.37;;;3.23;;
9524;SDS011;15940;48.734;9.112;2024-01-16T04:23:28;3.70;;;3.13;;
9524;SDS011;15940;48.734;9.112;2024-01-16T04:25:56;3.57;;;2.77;;
9524;SDS011;15940;48.734;9.112;2024-01-16T04:28:23;4.60;;;2.70;;
9524;SDS011;15940;48.734;9.112;2024-01-16T04:30:50;4.03;;;2.93;;
9524;SDS011;15940;48.734;9.112;2024-01-16T04:33:17;5.10;;;3.03;;
9524;SDS011;15940;48.734;9.112;2024-01-16T04:35:43;4.17;;;2.97;;
9524;SDS011;15940;48.734;9.112;2024-01-16T04:38:10;3.83;;;2.70;;
9524;SDS011;15940;48.734;9.112;2024-01-16T04:40:37;4.23;;;3.10;;
9524;SDS011;15940;48.734;9.112;2024-01-16T04:43:04;4.50;;;2.73;;
9524;SDS011;15940;48.734;9.112;2024-01-16T04:45:31;3.53;;;2.70;;
9524;SDS011;15940;48.734;9.112;2024-01-16T04:47:58;5.30;;;3.40;;
9524;SDS011;15940;48.734;9.112;2024-01-16T04:50:25;3.53;;;2.97;;
9524;SDS011;15940;48.734;9.112;2024-01-16T04:52:56;2.93;;;2.67;;
9524;SDS011;15940;48.734;9.112;2024-01-16T04:55:24;6.27;;;3.03;;
9524;SDS011;15940;48.734;9.112;2024-01-16T04:57:51;3.83;;;3.17;;
9524;SDS011;15940;48.734;9.112;2024-01-16T05:00:18;4.17;;;3.10;;
9524;SDS011;15940;48.734;9.112;2024-01-16T05:02:45;4.87;;;2.73;;
9524;SDS011;15940;48.734;9.112;2024-01-16T05:05:12;4.07;;;2.80;;
9524;SDS011;15940;48.734;9.112;2024-01-16T05:07:39;4.43;;;2.67;;
9524;SDS011;15940;48.734;9.112;2024-01-16T05:10:08;3.13;;;2.57;;
9524;SDS011;15940;48.734;9.112;2024-01-16T05:12:35;3.70;;;2.63;;
9524;SDS011;15940;48.734;9.112;2024-01-16T05:15:02;4.27;;;3.00;;
9524;SDS011;15940;48.734;9.112;2024-01-16T05:17:31;5.33;;;2.77;;
9524;SDS011;15940;48.734;9.112;2024-01-16T05:19:58;4.37;;;2.90;;
9524;SDS011;15940;48.734;9.112;2024-01-16T05:22:24;4.13;;;2.60;;
9524;SDS011;15940;48.734;9.112;2024-01-16T05:24:51;4.97;;;3.30;;
9524;SDS011;15940;48.734;9.112;2024-01-16T05:27:18;5.00;;;3.37;;
9524;SDS011;15940;48.734;9.112;2024-01-16T05:29:45;5.23;;;2.63;;
9524;SDS011;15940;48.734;9.112;2024-01-16T05:32:13;5.33;;;3.10;;
9524;SDS011;15940;48.734;9.112;2024-01-16T05:34:41;4.07;;;3.17;;
9524;SDS011;15940;48.734;9.112;2024-01-16T05:37:08;9.03;;;3.20;;
9524;SDS011;15940;48.734;9.112;2024-01-16T05:39:34;4.03;;;2.87;;
9524;SDS011;15940;48.734;9.112;2024-01-16T05:42:01;6.33;;;3.40;;
9524;SDS011;15940;48.734;9.112;2024-01-16T05:44:28;4.93;;;3.00;;
9524;SDS011;15940;48.734;9.112;2024-01-16T05:46:55;4.33;;;3.00;;
9524;SDS011;15940;48.734;9.112;2024-01-16T05:49:22;5.37;;;3.00;;
9524;SDS011;15940;48.734;9.112;2024-01-16T05:51:50;4.40;;;3.23;;
9524;SDS011;15940;48.734;9.112;2024-01-16T05:54:16;6.27;;;3.03;;
9524;SDS011;15940;48.734;9.112;2024-01-16T05:56:43;4.37;;;2.57;;
9524;SDS011;15940;48.734;9.112;2024-01-16T05:59:10;4.50;;;2.87;;
9524;SDS011;15940;48.734;9.112;2024-01-16T06:01:36;5.10;;;3.13;;
9524;SDS011;15940;48.734;9.112;2024-01-16T06:04:03;7.37;;;3.17;;
9524;SDS011;15940;48.734;9.112;2024-01-16T06:06:30;4.53;;;3.00;;
9524;SDS011;15940;48.734;9.112;2024-01-16T06:08:59;3.53;;;2.73;;
9524;SDS011;15940;48.734;9.112;2024-01-16T06:11:30;4.90;;;3.00;;
9524;SDS011;15940;48.734;9.112;2024-01-16T06:13:57;4.83;;;3.27;;
9524;SDS011;15940;48.734;9.112;2024-01-16T06:16:24;3.97;;;2.90;;
9524;SDS011;15940;48.734;9.112;2024-01-16T06:18:51;4.30;;;3.17;;
9524;SDS011;15940;48.734;9.112;2024-01-16T06:21:18;3.47;;;2.70;;
9524;SDS011;15940;48.734;9.112;2024-01-16T06:23:45;3.87;;;2.93;;
9524;SDS011;15940;48.734;9.112;2024-01-16T06:26:13;3.20;;;2.63;;
9524;SDS011;15940;48.734;9.112;2024-01-16T06:28:40;3.93;;;2.90;;
9524;SDS011;15940;48.734;9.112;2024-01-16T06:31:07;5.23;;;3.00;;
9524;SDS011;15940;48.734;9.112;2024-01-16T06:33:34;4.30;;;2.60;;
9524;SDS011;15940;48.734;9.112;2024-01-16T06:36:01;3.80;;;2.57;;
9524;SDS011;15940;48.734;9.112;2024-01-16T06:38:29;4.60;;;2.50;;
9524;SDS011;15940;48.734;9.112;2024-01-16T06:40:56;4.67;;;2.50;;
9524;SDS011;15940;48.734;9.112;2024-01-16T06:43:24;3.23;;;2.60;;
9524;SDS011;15940;48.734;9.112;2024-01-16T06:45:51;3.10;;;2.60;;
9524;SDS011;15940;48.734;9.112;2024-01-16T06:48:18;7.53;;;2.70;;
9524;SDS011;15940;48.734;9.112;2024-01-16T06:50:45;5.80;;;3.10;;
9524;SDS011;15940;48.734;9.112;2024-01-16T06:53:11;4.33;;;2.67;;
9524;SDS011;15940;48.734;9.112;2024-01-16T06:55:38;6.13;;;2.90;;
9524;SDS011;15940;48.734;9.112;2024-01-16T06:58:05;5.53;;;3.10;;
9524;SDS011;15940;48.734;9.112;2024-01-16T07:00:33;3.93;;;2.77;;
9524;SDS011;15940;48.734;9.112;2024-01-16T07:03:00;3.47;;;2.67;;
9524;SDS011;15940;48.734;9.112;2024-01-16T07:05:27;4.03;;;2.77;;
9524;SDS011;15940;48.734;9.112;2024-01-16T07:07:55;4.63;;;2.90;;
9524;SDS011;15940;48.734;9.112;2024-01-16T07:10:21;3.37;;;2.80;;
9524;SDS011;15940;48.734;9.112;2024-01-16T07:12:49;4.70;;;2.77;;
9524;SDS011;15940;48.734;9.112;2024-01-16T07:15:16;3.90;;;2.90;;
9524;SDS011;15940;48.734;9.112;2024-01-16T07:17:44;5.33;;;2.70;;
9524;SDS011;15940;48.734;9.112;2024-01-16T07:20:11;3.67;;;2.63;;
9524;SDS011;15940;48.734;9.112;2024-01-16T07:22:38;3.93;;;2.50;;
9524;SDS011;15940;48.734;9.112;2024-01-16T07:25:05;3.83;;;2.80;;
9524;SDS011;15940;48.734;9.112;2024-01-16T07:27:32;5.27;;;3.00;;
9524;SDS011;15940;48.734;9.112;2024-01-16T07:29:59;3.73;;;2.60;;
9524;SDS011;15940;48.734;9.112;2024-01-16T07:32:26;5.63;;;2.73;;
9524;SDS011;15940;48.734;9.112;2024-01-16T07:34:54;2.83;;;2.43;;
9524;SDS011;15940;48.734;9.112;2024-01-16T07:37:21;5.13;;;2.90;;
9524;SDS011;15940;48.734;9.112;2024-01-16T07:39:47;3.33;;;2.57;;
9524;SDS011;15940;48.734;9.112;2024-01-16T07:42:14;6.33;;;3.10;;
9524;SDS011;15940;48.734;9.112;2024-01-16T07:44:41;5.27;;;3.07;;
9524;SDS011;15940;48.734;9.112;2024-01-16T07:47:08;6.20;;;3.23;;
9524;SDS011;15940;48.734;9.112;2024-01-16T07:49:35;5.27;;;3.00;;
9524;SDS011;15940;48.734;9.112;2024-01-16T07:52:03;4.30;;;2.60;;
9524;SDS011;15940;48.734;9.112;2024-01-16T07:54:30;3.50;;;2.27;;
9524;SDS011;15940;48.734;9.112;2024-01-16T07:56:57;4.70;;;2.53;;
9524;SDS011;15940;48.734;9.112;2024-01-16T07:59:24;4.23;;;2.53;;
9524;SDS011;15940;48.734;9.112;2024-01-16T08:01:51;3.60;;;2.87;;
9524;SDS011;15940;48.734;9.112;2024-01-16T08:04:18;8.13;;;3.00;;
9524;SDS011;15940;48.734;9.112;2024-01-16T08:06:45;3.47;;;2.40;;
9524;SDS011;15940;48.734;9.112;2024-01-16T08:09:13;4.10;;;2.40;;
9524;SDS011;15940;48.734;9.112;2024-01-16T08:11:40;2.30;;;2.10;;
9524;SDS011;15940;48.734;9.112;2024-01-16T08:14:07;4.47;;;2.53;;
9524;SDS011;15940;48.734;9.112;2024-01-16T08:16:34;3.67;;;2.50;;
9524;SDS011;15940;48.734;9.112;2024-01-16T08:19:01;3.40;;;2.67;;
9524;SDS011;15940;48.734;9.112;2024-01-16T08:21:28;3.50;;;2.13;;
9524;SDS011;15940;48.734;9.112;2024-01-16T08:23:55;3.33;;;2.70;;
9524;SDS011;15940;48.734;9.112;2024-01-16T08:26:23;2.30;;;2.10;;
9524;SDS011;15940;48.734;9.112;2024-01-16T08:28:50;2.87;;;2.00;;
9524;SDS011;15940;48.734;9.112;2024-01-16T08:31:17;3.03;;;2.30;;
9524;SDS011;15940;48.734;9.112;2024-01-16T08:33:44;4.60;;;2.30;;
9524;SDS011;15940;48.734;9.112;2024-01-16T08:36:10;3.23;;;2.30;;
9524;SDS011;15940;48.734;9.112;2024-01-16T08:38:37;5.37;;;2.30;;
9524;SDS011;15940;48.734;9.112;2024-01-16T08:41:04;5.23;;;2.47;;
9524;SDS011;15940;48.734;9.112;2024-01-16T08:43:33;3.47;;;2.10;;
9524;SDS011;15940;48.734;9.112;2024-01-16T08:45:59;5.37;;;2.73;;
9524;SDS011;15940;48.734;9.112;2024-01-16T08:48:26;4.93;;;2.50;;
9524;SDS011;15940;48.734;9.112;2024-01-16T08:50:53;4.37;;;2.27;;
9524;SDS011;15940;48.734;9.112;2024-01-16T08:53:20;3.93;;;2.37;;
9524;SDS011;15940;48.734;9.112;2024-01-16T08:55:48;4.50;;;2.37;;
9524;SDS011;15940;48.734;9.112;2024-01-16T08:58:15;3.23;;;2.27;;
9524;SDS011;15940;48.734;9.112;2024-01-16T09:00:43;3.50;;;2.50;;
9524;SDS011;15940;48.734;9.112;2024-01-16T09:03:09;4.43;;;2.27;;
9524;SDS011;15940;48.734;9.112;2024-01-16T09:05:37;2.53;;;2.33;;
9524;SDS011;15940;48.734;9.112;2024-01-16T09:08:04;2.17;;;2.00;;
9524;SDS011;15940;48.734;9.112;2024-01-16T09:10:31;3.17;;;2.40;;
9524;SDS011;15940;48.734;9.112;2024-01-16T09:12:58;3.23;;;2.00;;
9524;SDS011;15940;48.734;9.112;2024-01-16T09:15:25;3.43;;;2.60;;
9524;SDS011;15940;48.734;9.112;2024-01-16T09:17:53;3.37;;;2.40;;
9524;SDS011;15940;48.734;9.112;2024-01-16T09:20:19;5.27;;;2.13;;
9524;SDS011;15940;48.734;9.112;2024-01-16T09:22:46;2.80;;;2.30;;
9524;SDS011;15940;48.734;9.112;2024-01-16T09:25:13;5.23;;;2.47;;
9524;SDS011;15940;48.734;9.112;2024-01-16T09:27:41;2.97;;;2.60;;
9524;SDS011;15940;48.734;9.112;2024-01-16T09:30:08;3.77;;;2.53;;
9524;SDS011;15940;48.734;9.112;2024-01-16T09:32:35;3.70;;;2.63;;
9524;SDS011;15940;48.734;9.112;2024-01-16T09:35:03;3.47;;;2.13;;
9524;SDS011;15940;48.734;9.112;2024-01-16T09:37:32;6.53;;;2.97;;
9524;SDS011;15940;48.734;9.112;2024-01-16T09:40:00;4.07;;;2.30;;
9524;SDS011;15940;48.734;9.112;2024-01-16T09:42:26;5.90;;;2.80;;
9524;SDS011;15940;48.734;9.112;2024-01-16T09:44:53;4.33;;;2.67;;
9524;SDS011;15940;48.734;9.112;2024-01-16T09:47:21;3.37;;;2.47;;
9524;SDS011;15940;48.734;9.112;2024-01-16T09:49:48;4.80;;;2.37;;
9524;SDS011;15940;48.734;9.112;2024-01-16T09:52:17;4.60;;;2.70;;
9524;SDS011;15940;48.734;9.112;2024-01-16T09:54:44;2.93;;;2.40;;
9524;SDS011;15940;48.734;9.112;2024-01-16T09:57:11;3.77;;;2.07;;
9524;SDS011;15940;48.734;9.112;2024-01-16T09:59:39;3.33;;;2.30;;
9524;SDS011;15940;48.734;9.112;2024-01-16T10:02:07;4.03;;;2.20;;
9524;SDS011;15940;48.734;9.112;2024-01-16T10:04:34;4.53;;;2.40;;
9524;SDS011;15940;48.734;9.112;2024-01-16T10:07:02;5.60;;;3.10;;
9524;SDS011;15940;48.734;9.112;2024-01-16T10:09:32;2.73;;;2.10;;
9524;SDS011;15940;48.734;9.112;2024-01-16T10:11:59;3.50;;;2.10;;
9524;SDS011;15940;48.734;9.112;2024-01-16T10:14:26;3.30;;;2.67;;
9524;SDS011;15940;48.734;9.112;2024-01-16T10:16:57;2.57;;;2.10;;
9524;SDS011;15940;48.734;9.112;2024-01-16T10:19:28;6.27;;;2.30;;
9524;SDS011;15940;48.734;9.112;2024-01-16T10:22:00;2.70;;;2.10;;
9524;SDS011;15940;48.734;9.112;2024-01-16T10:24:27;3.07;;;2.03;;
9524;SDS011;15940;48.734;9.112;2024-01-16T10:26:58;4.70;;;2.03;;
9524;SDS011;15940;48.734;9.112;2024-01-16T10:29:27;3.23;;;2.30;;
9524;SDS011;15940;48.734;9.112;2024-01-16T10:31:54;2.93;;;2.20;;
9524;SDS011;15940;48.734;9.112;2024-01-16T10:34:21;6.33;;;2.30;;
9524;SDS011;15940;48.734;9.112;2024-01-16T10:36:49;6.97;;;2.17;;
9524;SDS011;15940;48.734;9.112;2024-01-16T10:39:17;4.87;;;2.27;;
9524;SDS011;15940;48.734;9.112;2024-01-16T10:41:53;5.23;;;2.23;;
9524;SDS011;15940;48.734;9.112;2024-01-16T10:44:22;3.53;;;2.37;;
9524;SDS011;15940;48.734;9.112;2024-01-16T10:46:49;3.20;;;2.20;;
9524;SDS011;15940;48.734;9.112;2024-01-16T10:49:16;4.90;;;2.23;;
9524;SDS011;15940;48.734;9.112;2024-01-16T10:51:43;2.67;;;2.17;;
9524;SDS011;15940;48.734;9.112;2024-01-16T10:54:11;2.70;;;1.90;;
9524;SDS011;15940;48.734;9.112;2024-01-16T10:56:40;5.57;;;2.40;;
9524;SDS011;15940;48.734;9.112;2024-01-16T10:59:12;7.23;;;2.53;;
9524;SDS011;15940;48.734;9.112;2024-01-16T11:01:45;3.43;;;2.00;;
9524;SDS011;15940;48.734;9.112;2024-01-16T11:04:14;2.30;;;1.77;;
9524;SDS011;15940;48.734;9.112;2024-01-16T11:06:41;2.27;;;2.00;;
9524;SDS011;15940;48.734;9.112;2024-01-16T11:09:09;2.63;;;2.10;;
9524;SDS011;15940;48.734;9.112;2024-01-16T11:11:36;3.77;;;2.03;;
9524;SDS011;15940;48.734;9.112;2024-01-16T11:14:03;4.97;;;2.23;;
9524;SDS011;15940;48.734;9.112;2024-01-16T11:16:30;2.33;;;1.90;;
9524;SDS011;15940;48.734;9.112;2024-01-16T11:18:59;4.63;;;2.50;;
9524;SDS011;15940;48.734;9.112;2024-01-16T11:21:26;5.93;;;2.17;;
9524;SDS011;15940;48.734;9.112;2024-01-16T11:23:53;6.27;;;2.10;;
9524;SDS011;15940;48.734;9.112;2024-01-16T11:26:24;5.63;;;2.27;;
9524;SDS011;15940;48.734;9.112;2024-01-16T11:28:52;4.93;;;1.83;;
9524;SDS011;15940;48.734;9.112;2024-01-16T11:31:27;5.47;;;1.80;;
9524;SDS011;15940;48.734;9.112;2024-01-16T11:33:55;3.80;;;2.10;;
9524;SDS011;15940;48.734;9.112;2024-01-16T11:39:19;4.47;;;2.37;;
9524;SDS011;15940;48.734;9.112;2024-01-16T11:41:50;4.63;;;2.27;;
9524;SDS011;15940;48.734;9.112;2024-01-16T11:44:36;5.17;;;1.73;;
9524;SDS011;15940;48.734;9.112;2024-01-16T11:47:04;2.83;;;1.90;;
9524;SDS011;15940;48.734;9.112;2024-01-16T11:49:31;3.47;;;1.87;;
9524;SDS011;15940;48.734;9.112;2024-01-16T11:51:59;3.97;;;1.80;;
9524;SDS011;15940;48.734;9.112;2024-01-16T11:54:27;3.50;;;2.13;;
9524;SDS011;15940;48.734;9.112;2024-01-16T12:00:02;2.73;;;1.90;;
9524;SDS011;15940;48.734;9.112;2024-01-16T12:02:48;2.77;;;1.50;;
9524;SDS011;15940;48.734;9.112;2024-01-16T12:05:19;5.23;;;1.73;;
9524;SDS011;15940;48.734;9.112;2024-01-16T12:07:48;2.57;;;1.60;;
9524;SDS011;15940;48.734;9.112;2024-01-16T12:10:16;2.50;;;1.37;;
9524;SDS011;15940;48.734;9.112;2024-01-16T12:12:44;2.40;;;1.40;;
9524;SDS011;15940;48.734;9.112;2024-01-16T12:15:14;4.13;;;1.90;;
9524;SDS011;15940;48.734;9.112;2024-01-16T12:20:30;1.63;;;1.50;;
9524;SDS011;15940;48.734;9.112;2024-01-16T12:23:00;1.27;;;1.10;;
9524;SDS011;15940;48.734;9.112;2024-01-16T12:25:28;2.00;;;1.37;;
9524;SDS011;15940;48.734;9.112;2024-01-16T12:27:56;1.40;;;1.30;;
9524;SDS011;15940;48.734;9.112;2024-01-16T12:30:24;4.33;;;1.37;;
9524;SDS011;15940;48.734;9.112;2024-01-16T12:32:53;1.83;;;1.20;;
9524;SDS011;15940;48.734;9.112;2024-01-16T12:35:29;3.10;;;1.50;;
9524;SDS011;15940;48.734;9.112;2024-01-16T12:38:01;3.03;;;1.63;;
9524;SDS011;15940;48.734;9.112;2024-01-16T12:40:30;2.57;;;1.30;;
9524;SDS011;15940;48.734;9.112;2024-01-16T12:42:57;3.23;;;1.73;;
9524;SDS011;15940;48.734;9.112;2024-01-16T12:45:24;2.43;;;1.50;;
9524;SDS011;15940;48.734;9.112;2024-01-16T12:47:53;2.90;;;1.87;;
9524;SDS011;15940;48.734;9.112;2024-01-16T12:50:23;2.40;;;1.67;;
9524;SDS011;15940;48.734;9.112;2024-01-16T12:52:59;2.60;;;2.17;;
9524;SDS011;15940;48.734;9.112;2024-01-16T12:55:29;2.27;;;1.70;;
9524;SDS011;15940;48.734;9.112;2024-01-16T12:58:14;1.70;;;1.60;;
9524;SDS011;15940;48.734;9.112;2024-01-16T13:00:42;3.57;;;1.53;;
9524;SDS011;15940;48.734;9.112;2024-01-16T13:03:14;1.80;;;1.70;;
9524;SDS011;15940;48.734;9.112;2024-01-16T13:05:42;1.60;;;1.50;;
9524;SDS011;15940;48.734;9.112;2024-01-16T13:08:16;2.90;;;1.67;;
9524;SDS011;15940;48.734;9.112;2024-01-16T13:10:43;3.73;;;1.70;;
9524;SDS011;15940;48.734;9.112;2024-01-16T13:13:14;4.83;;;1.50;;
9524;SDS011;15940;48.734;9.112;2024-01-16T13:15:42;3.53;;;1.80;;
9524;SDS011;15940;48.734;9.112;2024-01-16T13:18:19;4.23;;;1.60;;
9524;SDS011;15940;48.734;9.112;2024-01-16T13:20:47;2.63;;;1.80;;
9524;SDS011;15940;48.734;9.112;2024-01-16T13:23:16;5.03;;;1.80;;
9524;SDS011;15940;48.734;9.112;2024-01-16T13:25:43;3.97;;;2.17;;
9524;SDS011;15940;48.734;9.112;2024-01-16T13:28:11;2.13;;;1.57;;
9524;SDS011;15940;48.734;9.112;2024-01-16T13:30:39;3.03;;;1.93;;
9524;SDS011;15940;48.734;9.112;2024-01-16T13:33:05;2.13;;;1.70;;
9524;SDS011;15940;48.734;9.112;2024-01-16T13:35:33;3.30;;;1.83;;
9524;SDS011;15940;48.734;9.112;2024-01-16T13:38:01;1.60;;;1.50;;
9524;SDS011;15940;48.734;9.112;2024-01-16T13:40:30;1.97;;;1.70;;
9524;SDS011;15940;48.734;9.112;2024-01-16T13:42:57;1.97;;;1.60;;
9524;SDS011;15940;48.734;9.112;2024-01-16T13:45:23;3.10;;;2.00;;
9524;SDS011;15940;48.734;9.112;2024-01-16T13:47:50;1.90;;;1.60;;
9524;SDS011;15940;48.734;9.112;2024-01-16T13:50:17;3.17;;;1.67;;
9524;SDS011;15940;48.734;9.112;2024-01-16T13:52:43;3.20;;;1.60;;
9524;SDS011;15940;48.734;9.112;2024-01-16T13:55:10;2.57;;;1.80;;
9524;SDS011;15940;48.734;9.112;2024-01-16T13:57:39;3.47;;;1.87;;
9524;SDS011;15940;48.734;9.112;2024-01-16T14:00:06;2.83;;;1.60;;
9524;SDS011;15940;48.734;9.112;2024-01-16T14:02:38;1.50;;;1.40;;
9524;SDS011;15940;48.734;9.112;2024-01-16T14:05:06;3.13;;;1.77;;
9524;SDS011;15940;48.734;9.112;2024-01-16T14:07:35;2.30;;;1.63;;
9524;SDS011;15940;48.734;9.112;2024-01-16T14:10:02;2.07;;;1.57;;
9524;SDS011;15940;48.734;9.112;2024-01-16T14:12:31;1.53;;;1.43;;
9524;SDS011;15940;48.734;9.112;2024-01-16T14:14:59;1.57;;;1.43;;
9524;SDS011;15940;48.734;9.112;2024-01-16T14:17:28;3.27;;;1.60;;
9524;SDS011;15940;48.734;9.112;2024-01-16T14:19:54;2.70;;;1.70;;
9524;SDS011;15940;48.734;9.112;2024-01-16T14:22:20;3.93;;;1.50;;
9524;SDS011;15940;48.734;9.112;2024-01-16T14:24:47;3.37;;;1.23;;
9524;SDS011;15940;48.734;9.112;2024-01-16T14:27:16;2.10;;;1.87;;
9524;SDS011;15940;48.734;9.112;2024-01-16T14:29:42;2.63;;;1.60;;
9524;SDS011;15940;48.734;9.112;2024-01-16T14:32:11;3.13;;;1.60;;
9524;SDS011;15940;48.734;9.112;2024-01-16T14:34:37;2.23;;;1.70;;
9524;SDS011;15940;48.734;9.112;2024-01-16T14:37:04;2.13;;;1.70;;
9524;SDS011;15940;48.734;9.112;2024-01-16T14:39:31;2.23;;;1.80;;
9524;SDS011;15940;48.734;9.112;2024-01-16T14:41:58;4.37;;;1.60;;
9524;SDS011;15940;48.734;9.112;2024-01-16T14:44:24;1.83;;;1.70;;
9524;SDS011;15940;48.734;9.112;2024-01-16T14:46:51;1.80;;;1.70;;
9524;SDS011;15940;48.734;9.112;2024-01-16T14:49:20;1.70;;;1.47;;
9524;SDS011;15940;48.734;9.112;2024-01-16T14:51:47;3.57;;;1.60;;
9524;SDS011;15940;48.734;9.112;2024-01-16T14:54:14;1.97;;;1.57;;
9524;SDS011;15940;48.734;9.112;2024-01-16T14:56:40;1.73;;;1.50;;
9524;SDS011;15940;48.734;9.112;2024-01-16T14:59:07;3.93;;;2.23;;
9524;SDS011;15940;48.734;9.112;2024-01-16T15:01:34;3.27;;;1.80;;
9524;SDS011;15940;48.734;9.112;2024-01-16T15:04:01;2.63;;;1.50;;
9524;SDS011;15940;48.734;9.112;2024-01-16T15:06:32;2.63;;;1.70;;
9524;SDS011;15940;48.734;9.112;2024-01-16T15:08:59;4.60;;;2.00;;
9524;SDS011;15940;48.734;9.112;2024-01-16T15:11:26;2.20;;;1.70;;